Time,TemperatureF,DewpointF,PressureIn,WindDirection,WindDirectionDegrees,WindSpeedMPH,WindSpeedGustMPH,Humidity,HourlyPrecipIn,Conditions,Clouds,dailyrainin,SoftwareType,DateUTC
2013-11-17 00:13:00,76.9,71.0,30.00,SW,217,1.0,4.0,82,0.00,,,0.00,weatherlink.com 1.10,2013-11-17 10:13:00,
2013-11-17 00:31:00,76.9,71.0,29.99,South,188,0.0,3.0,82,0.00,,,0.00,weatherlink.com 1.10,2013-11-17 10:31:00,
2013-11-17 00:48:00,76.9,71.0,29.99,East,84,0.0,5.0,81,0.00,,,0.00,weatherlink.com 1.10,2013-11-17 10:48:00,
2013-11-17 01:05:00,76.8,71.0,29.98,SSE,161,0.0,1.0,82,0.00,,,0.00,weatherlink.com 1.10,2013-11-17 11:05:00,
2013-11-17 01:23:00,76.6,71.0,29.98,SSE,159,0.0,0.0,82,0.00,,,0.00,weatherlink.com 1.10,2013-11-17 11:23:00,
2013-11-17 01:40:00,76.4,71.0,29.98,SSE,148,0.0,3.0,83,0.00,,,0.00,weatherlink.com 1.10,2013-11-17 11:40:00,
2013-11-17 01:56:00,76.6,71.0,29.97,ESE,120,0.0,1.0,83,0.00,,,0.00,weatherlink.com 1.10,2013-11-17 11:56:00,
2013-11-17 02:13:00,76.5,71.0,29.97,South,169,0.0,4.0,84,0.00,,,0.00,weatherlink.com 1.10,2013-11-17 12:13:00,
2013-11-17 02:31:00,76.1,71.0,29.96,ESE,107,0.0,4.0,85,0.00,,,0.00,weatherlink.com 1.10,2013-11-17 12:31:00,
2013-11-17 02:48:00,75.6,71.0,29.96,ESE,107,0.0,0.0,86,0.00,,,0.00,weatherlink.com 1.10,2013-11-17 12:48:00,
2013-11-17 03:05:00,74.5,70.0,29.95,ESE,107,0.0,0.0,87,0.00,,,0.00,weatherlink.com 1.10,2013-11-17 13:05:00,
2013-11-17 03:22:00,73.8,70.0,29.95,ESE,107,0.0,0.0,89,0.00,,,0.00,weatherlink.com 1.10,2013-11-17 13:22:00,
2013-11-17 03:40:00,73.5,71.0,29.95,ESE,107,0.0,0.0,91,0.00,,,0.00,weatherlink.com 1.10,2013-11-17 13:40:00,
2013-11-17 03:57:00,73.1,70.0,29.95,ESE,107,0.0,0.0,91,0.00,,,0.00,weatherlink.com 1.10,2013-11-17 13:57:00,
2013-11-17 04:14:00,72.6,70.0,29.94,ESE,107,0.0,0.0,92,0.00,,,0.00,weatherlink.com 1.10,2013-11-17 14:14:00,
2013-11-17 04:32:00,72.3,70.0,29.94,ESE,107,0.0,0.0,93,0.00,,,0.00,weatherlink.com 1.10,2013-11-17 14:32:00,
2013-11-17 04:49:00,72.5,70.0,29.94,ESE,107,0.0,0.0,93,0.00,,,0.00,weatherlink.com 1.10,2013-11-17 14:49:00,
2013-11-17 05:06:00,72.6,71.0,29.93,ESE,107,0.0,0.0,94,0.00,,,0.00,weatherlink.com 1.10,2013-11-17 15:06:00,
2013-11-17 05:23:00,72.9,71.0,29.93,ESE,107,0.0,0.0,93,0.00,,,0.00,weatherlink.com 1.10,2013-11-17 15:23:00,
2013-11-17 05:40:00,72.8,71.0,29.94,ESE,107,0.0,0.0,93,0.00,,,0.00,weatherlink.com 1.10,2013-11-17 15:40:00,
2013-11-17 05:58:00,72.5,70.0,29.94,ESE,107,0.0,0.0,93,0.00,,,0.00,weatherlink.com 1.10,2013-11-17 15:58:00,
2013-11-17 06:15:00,72.2,70.0,29.94,ESE,107,0.0,0.0,93,0.00,,,0.00,weatherlink.com 1.10,2013-11-17 16:15:00,
2013-11-17 06:33:00,71.8,70.0,29.94,ESE,107,0.0,0.0,93,0.00,,,0.00,weatherlink.com 1.10,2013-11-17 16:33:00,
2013-11-17 06:50:00,71.5,70.0,29.94,ESE,109,0.0,0.0,94,0.00,,,0.00,weatherlink.com 1.10,2013-11-17 16:50:00,
2013-11-17 07:08:00,71.7,70.0,29.94,ESE,109,0.0,0.0,95,0.00,,,0.00,weatherlink.com 1.10,2013-11-17 17:08:00,
2013-11-17 07:25:00,71.9,70.0,29.95,ESE,109,0.0,0.0,95,0.00,,,0.00,weatherlink.com 1.10,2013-11-17 17:25:00,
2013-11-17 07:42:00,72.5,71.0,29.95,ESE,109,0.0,0.0,95,0.00,,,0.00,weatherlink.com 1.10,2013-11-17 17:42:00,
2013-11-17 07:59:00,73.4,72.0,29.95,ESE,109,0.0,0.0,95,0.00,,,0.00,weatherlink.com 1.10,2013-11-17 17:59:00,
2013-11-17 08:17:00,76.4,74.0,29.95,South,174,0.0,6.0,92,0.00,,,0.00,weatherlink.com 1.10,2013-11-17 18:17:00,
2013-11-17 08:34:00,78.3,73.0,29.95,South,173,0.0,3.0,85,0.00,,,0.00,weatherlink.com 1.10,2013-11-17 18:34:00,
2013-11-17 08:51:00,79.3,74.0,29.95,ENE,70,0.0,4.0,83,0.00,,,0.00,weatherlink.com 1.10,2013-11-17 18:51:00,
2013-11-17 09:09:00,79.5,74.0,29.96,SSE,155,0.0,5.0,83,0.00,,,0.00,weatherlink.com 1.10,2013-11-17 19:09:00,
2013-11-17 09:26:00,79.8,75.0,29.96,ENE,58,0.0,4.0,84,0.00,,,0.00,weatherlink.com 1.10,2013-11-17 19:26:00,
2013-11-17 09:44:00,80.4,74.0,29.96,East,100,0.0,4.0,82,0.00,,,0.00,weatherlink.com 1.10,2013-11-17 19:44:00,
2013-11-17 10:01:00,80.1,73.0,29.96,ENE,77,0.0,4.0,79,0.00,,,0.00,weatherlink.com 1.10,2013-11-17 20:01:00,
2013-11-17 10:18:00,80.1,73.0,29.96,South,188,0.0,0.0,79,0.00,,,0.00,weatherlink.com 1.10,2013-11-17 20:18:00,
2013-11-17 10:35:00,80.6,73.0,29.96,SSE,155,0.0,0.0,79,0.00,,,0.00,weatherlink.com 1.10,2013-11-17 20:35:00,
2013-11-17 10:53:00,80.3,74.0,29.96,NW,311,0.0,1.0,81,0.00,,,0.00,weatherlink.com 1.10,2013-11-17 20:53:00,
2013-11-17 11:10:00,80.3,74.0,29.95,SW,227,0.0,2.0,81,0.00,,,0.00,weatherlink.com 1.10,2013-11-17 21:10:00,
2013-11-17 11:27:00,80.6,73.0,29.95,NW,317,0.0,2.0,79,0.00,,,0.00,weatherlink.com 1.10,2013-11-17 21:27:00,
2013-11-17 11:44:00,81.0,73.0,29.94,NNW,335,4.0,4.0,76,0.00,,,0.00,weatherlink.com 1.10,2013-11-17 21:44:00,
2013-11-17 12:02:00,80.9,73.0,29.94,NNW,344,0.0,4.0,77,0.00,,,0.00,weatherlink.com 1.10,2013-11-17 22:02:00,
2013-11-17 12:19:00,81.0,72.0,29.93,ENE,76,0.0,5.0,75,0.00,,,0.00,weatherlink.com 1.10,2013-11-17 22:19:00,
2013-11-17 12:36:00,80.3,73.0,29.92,SE,144,5.0,5.0,78,0.00,,,0.00,weatherlink.com 1.10,2013-11-17 22:36:00,
2013-11-17 12:54:00,80.1,73.0,29.91,ESE,113,0.0,4.0,80,0.00,,,0.00,weatherlink.com 1.10,2013-11-17 22:54:00,
2013-11-17 13:11:00,80.8,74.0,29.90,SE,139,0.0,3.0,79,0.00,,,0.00,weatherlink.com 1.10,2013-11-17 23:11:00,
2013-11-17 13:28:00,81.8,74.0,29.90,ESE,119,0.0,1.0,78,0.00,,,0.00,weatherlink.com 1.10,2013-11-17 23:28:00,
2013-11-17 13:45:00,81.5,73.0,29.89,ENE,67,0.0,1.0,76,0.00,,,0.00,weatherlink.com 1.10,2013-11-17 23:45:00,
2013-11-17 14:03:00,81.2,74.0,29.89,SE,132,0.0,2.0,78,0.00,,,0.00,weatherlink.com 1.10,2013-11-18 00:03:00,
2013-11-17 14:20:00,81.5,74.0,29.88,SSE,163,0.0,0.0,77,0.00,,,0.00,weatherlink.com 1.10,2013-11-18 00:20:00,
2013-11-17 14:37:00,82.6,73.0,29.88,South,186,0.0,0.0,73,0.00,,,0.00,weatherlink.com 1.10,2013-11-18 00:37:00,
2013-11-17 14:55:00,82.2,73.0,29.88,South,180,0.0,1.0,74,0.00,,,0.00,weatherlink.com 1.10,2013-11-18 00:55:00,
2013-11-17 15:12:00,81.6,73.0,29.88,SSW,196,0.0,3.0,76,0.00,,,0.00,weatherlink.com 1.10,2013-11-18 01:12:00,
2013-11-17 15:29:00,81.0,73.0,29.88,SE,130,0.0,4.0,78,0.00,,,0.00,weatherlink.com 1.10,2013-11-18 01:29:00,
2013-11-17 15:47:00,80.9,73.0,29.88,SSE,154,0.0,1.0,77,0.00,,,0.00,weatherlink.com 1.10,2013-11-18 01:47:00,
2013-11-17 16:04:00,80.7,74.0,29.88,ESE,104,0.0,3.0,79,0.00,,,0.00,weatherlink.com 1.10,2013-11-18 02:04:00,
2013-11-17 16:22:00,79.8,72.0,29.89,SE,137,0.0,1.0,77,0.00,,,0.00,weatherlink.com 1.10,2013-11-18 02:22:00,
2013-11-17 16:40:00,79.2,72.0,29.89,ESE,113,0.0,0.0,78,0.00,,,0.00,weatherlink.com 1.10,2013-11-18 02:40:00,
2013-11-17 16:57:00,78.6,73.0,29.90,ENE,61,0.0,1.0,83,0.00,,,0.00,weatherlink.com 1.10,2013-11-18 02:57:00,
2013-11-17 17:14:00,77.9,73.0,29.91,ENE,61,0.0,0.0,84,0.00,,,0.00,weatherlink.com 1.10,2013-11-18 03:14:00,
2013-11-17 17:31:00,77.5,73.0,29.91,ENE,61,0.0,0.0,85,0.00,,,0.00,weatherlink.com 1.10,2013-11-18 03:31:00,
2013-11-17 17:49:00,77.0,72.0,29.91,ENE,61,0.0,0.0,86,0.00,,,0.00,weatherlink.com 1.10,2013-11-18 03:49:00,
2013-11-17 18:06:00,76.6,72.0,29.92,ENE,61,0.0,0.0,87,0.00,,,0.00,weatherlink.com 1.10,2013-11-18 04:06:00,
2013-11-17 18:23:00,76.4,73.0,29.92,WNW,282,0.0,3.0,88,0.00,,,0.00,weatherlink.com 1.10,2013-11-18 04:23:00,
2013-11-17 18:41:00,75.8,72.0,29.92,West,271,0.0,0.0,89,0.01,,,0.01,weatherlink.com 1.10,2013-11-18 04:41:00,
2013-11-17 18:58:00,75.4,72.0,29.93,West,270,0.0,0.0,90,0.01,,,0.01,weatherlink.com 1.10,2013-11-18 04:58:00,
2013-11-17 19:16:00,75.0,72.0,29.93,West,270,0.0,0.0,91,0.01,,,0.01,weatherlink.com 1.10,2013-11-18 05:16:00,
2013-11-17 19:33:00,74.8,72.0,29.94,West,270,0.0,0.0,91,0.00,,,0.01,weatherlink.com 1.10,2013-11-18 05:33:00,
2013-11-17 19:50:00,74.6,72.0,29.94,West,270,0.0,0.0,92,0.00,,,0.01,weatherlink.com 1.10,2013-11-18 05:50:00,
2013-11-17 20:07:00,74.6,72.0,29.94,West,270,0.0,0.0,93,0.02,,,0.03,weatherlink.com 1.10,2013-11-18 06:07:00,
2013-11-17 20:25:00,74.4,72.0,29.94,West,269,0.0,0.0,93,0.02,,,0.03,weatherlink.com 1.10,2013-11-18 06:25:00,
2013-11-17 20:42:00,74.3,72.0,29.94,West,269,0.0,0.0,94,0.02,,,0.03,weatherlink.com 1.10,2013-11-18 06:42:00,
2013-11-17 20:59:00,74.2,72.0,29.94,West,269,0.0,0.0,94,0.01,,,0.03,weatherlink.com 1.10,2013-11-18 06:59:00,
2013-11-17 21:17:00,74.2,72.0,29.94,West,269,0.0,1.0,94,0.00,,,0.03,weatherlink.com 1.10,2013-11-18 07:17:00,
2013-11-17 21:34:00,74.0,72.0,29.94,WSW,257,0.0,1.0,94,0.00,,,0.03,weatherlink.com 1.10,2013-11-18 07:34:00,
2013-11-17 21:51:00,74.0,72.0,29.93,WSW,240,0.0,0.0,94,0.00,,,0.03,weatherlink.com 1.10,2013-11-18 07:51:00,
2013-11-17 22:08:00,74.3,72.0,29.93,SW,235,0.0,1.0,93,0.00,,,0.03,weatherlink.com 1.10,2013-11-18 08:08:00,
2013-11-17 22:25:00,74.7,72.0,29.93,SW,234,0.0,0.0,92,0.00,,,0.03,weatherlink.com 1.10,2013-11-18 08:25:00,
2013-11-17 22:43:00,75.0,72.0,29.93,South,179,0.0,3.0,90,0.00,,,0.03,weatherlink.com 1.10,2013-11-18 08:43:00,
2013-11-17 23:01:00,75.3,71.0,29.93,East,88,1.0,3.0,88,0.00,,,0.03,weatherlink.com 1.10,2013-11-18 09:01:00,
2013-11-17 23:18:00,75.0,72.0,29.92,East,88,0.0,0.0,89,0.00,,,0.03,weatherlink.com 1.10,2013-11-18 09:18:00,
2013-11-17 23:35:00,74.8,72.0,29.92,East,88,0.0,3.0,90,0.00,,,0.03,weatherlink.com 1.10,2013-11-18 09:35:00,
2013-11-17 23:52:00,74.5,72.0,29.91,SE,134,1.0,0.0,91,0.00,,,0.03,weatherlink.com 1.10,2013-11-18 09:52:00,